createdAt,value
2022-08-05T00:00:46.210Z,2.47
2022-08-05T00:06:05.728Z,1.95
2022-08-05T00:11:48.683Z,2.40
2022-08-05T00:17:05.601Z,2.10
2022-08-05T00:22:26.388Z,1.77
2022-08-05T00:27:36.275Z,1.73
2022-08-05T00:33:05.242Z,1.75
2022-08-05T00:38:28.900Z,1.83
2022-08-05T00:44:05.823Z,2.05
2022-08-05T00:49:16.807Z,1.80
2022-08-05T00:54:35.643Z,1.80
2022-08-05T00:59:45.510Z,2.38
2022-08-05T01:10:42.214Z,1.80
2022-08-05T01:16:08.058Z,1.95
2022-08-05T01:21:54.809Z,2.40
2022-08-05T01:27:19.670Z,2.05
2022-08-05T01:32:38.359Z,2.22
2022-08-05T01:38:04.534Z,2.20
2022-08-05T01:43:25.795Z,2.03
2022-08-05T01:48:50.736Z,2.35
2022-08-05T01:53:59.655Z,2.35
2022-08-05T01:59:14.532Z,3.17
2022-08-05T02:04:33.929Z,2.92
2022-08-05T02:10:07.857Z,2.90
2022-08-05T02:15:22.340Z,2.65
2022-08-05T02:21:00.037Z,2.08
2022-08-05T02:26:17.381Z,2.58
2022-08-05T02:31:26.669Z,2.22
2022-08-05T02:36:55.389Z,2.17
2022-08-05T02:42:22.502Z,2.50
2022-08-05T02:48:07.058Z,2.20
2022-08-05T02:53:19.660Z,2.17
2022-08-05T02:58:37.809Z,2.30
2022-08-05T03:04:14.339Z,2.17
2022-08-05T03:09:51.470Z,2.20
2022-08-05T03:15:02.267Z,2.53
2022-08-05T03:20:23.703Z,2.92
2022-08-05T03:26:30.355Z,2.55
2022-08-05T03:31:56.888Z,2.70
2022-08-05T03:37:13.180Z,2.13
2022-08-05T03:42:22.226Z,2.55
2022-08-05T03:47:35.462Z,2.72
2022-08-05T03:55:51.034Z,2.20
2022-08-05T03:58:35.819Z,2.20
2022-08-05T04:04:09.467Z,2.25
2022-08-05T04:09:20.291Z,2.28
2022-08-05T04:14:44.363Z,2.30
2022-08-05T04:19:54.291Z,2.38
2022-08-05T04:24:58.647Z,2.38
2022-08-05T04:30:12.444Z,2.55
2022-08-05T04:35:23.275Z,2.30
2022-08-05T04:40:32.972Z,2.35
2022-08-05T04:46:28.170Z,2.80
2022-08-05T04:51:44.179Z,2.33
2022-08-05T04:56:51.046Z,2.50
2022-08-05T05:02:36.082Z,2.22
2022-08-05T05:07:56.229Z,1.85
2022-08-05T05:13:16.945Z,1.60
2022-08-05T05:18:33.135Z,2.25
2022-08-05T05:24:02.286Z,1.98
2022-08-05T05:29:14.393Z,2.30
2022-08-05T05:34:36.233Z,2.30
2022-08-05T05:39:55.406Z,2.30
2022-08-05T05:45:03.872Z,2.47
2022-08-05T05:50:20.347Z,2.40
2022-08-05T05:55:24.254Z,2.60
2022-08-05T06:00:50.504Z,2.03
2022-08-05T06:05:55.942Z,2.40
2022-08-05T06:11:04.208Z,2.38
2022-08-05T06:16:28.839Z,2.45
2022-08-05T06:21:49.724Z,2.00
2022-08-05T06:28:08.811Z,2.08
2022-08-05T06:32:59.457Z,2.20
2022-08-05T06:38:35.839Z,2.72
2022-08-05T06:44:00.158Z,2.10
2022-08-05T06:49:08.820Z,2.35
2022-08-05T06:54:52.096Z,2.63
2022-08-05T06:59:59.490Z,2.40
2022-08-05T07:05:14.156Z,2.28
2022-08-05T07:10:32.340Z,2.17
2022-08-05T07:16:00.859Z,2.33
2022-08-05T07:21:09.534Z,2.55
2022-08-05T07:26:41.862Z,2.40
2022-08-05T07:31:55.714Z,2.60
2022-08-05T07:37:13.292Z,2.40
2022-08-05T07:42:33.979Z,2.72
2022-08-05T07:53:19.611Z,2.30
2022-08-05T07:58:57.412Z,2.63
2022-08-05T08:04:00.466Z,2.70
2022-08-05T08:09:15.273Z,2.35
2022-08-05T08:14:22.758Z,2.40
2022-08-05T08:20:22.726Z,2.22
2022-08-05T08:25:02.751Z,2.20
2022-08-05T08:30:29.580Z,2.38
2022-08-05T08:35:53.950Z,2.05
2022-08-05T08:41:08.960Z,2.20
2022-08-05T08:46:19.191Z,2.17
2022-08-05T08:52:03.821Z,2.65
2022-08-05T08:56:59.575Z,2.30
2022-08-05T09:02:08.982Z,2.40
2022-08-05T09:07:28.436Z,2.38
2022-08-05T09:13:05.004Z,2.35
2022-08-05T09:18:16.107Z,2.15
2022-08-05T09:23:37.427Z,2.70
2022-08-05T09:28:55.978Z,2.40
2022-08-05T09:34:17.622Z,1.80
2022-08-05T09:39:43.164Z,1.85
2022-08-05T09:45:17.870Z,2.30
2022-08-05T09:50:44.752Z,2.20
2022-08-05T09:56:03.721Z,2.00
2022-08-05T10:01:22.576Z,2.20
2022-08-05T10:06:55.129Z,1.95
2022-08-05T10:12:31.020Z,1.92
2022-08-05T10:17:40.715Z,2.00
2022-08-05T10:22:56.025Z,2.30
2022-08-05T10:33:28.856Z,1.88
2022-08-05T10:38:37.763Z,2.70
2022-08-05T10:44:09.369Z,2.38
2022-08-05T10:49:27.553Z,1.98
2022-08-05T10:55:04.661Z,1.85
2022-08-05T11:00:24.907Z,2.05
2022-08-05T11:05:42.980Z,2.33
2022-08-05T11:11:00.882Z,2.15
2022-08-05T11:16:47.511Z,2.22
2022-08-05T11:22:01.779Z,2.10
2022-08-05T11:27:51.795Z,2.22
2022-08-05T11:33:46.389Z,2.60
2022-08-05T11:39:19.171Z,2.00
2022-08-05T11:44:53.891Z,2.47
2022-08-05T11:50:08.256Z,2.15
2022-08-05T11:55:36.519Z,2.88
2022-08-05T12:00:55.360Z,2.33
2022-08-05T12:06:11.369Z,2.22
2022-08-05T12:11:40.104Z,2.20
2022-08-05T12:18:02.693Z,2.42
2022-08-05T12:22:47.642Z,2.20
2022-08-05T12:28:02.463Z,2.40
2022-08-05T12:33:27.098Z,2.40
2022-08-05T12:38:41.207Z,2.10
2022-08-05T12:44:02.180Z,2.38
2022-08-05T12:49:13.580Z,2.08
2022-08-05T12:54:26.490Z,2.03
2022-08-05T12:59:46.835Z,2.30
2022-08-05T13:05:20.611Z,2.15
2022-08-05T13:10:28.918Z,1.90
2022-08-05T13:15:50.881Z,2.08
2022-08-05T13:21:01.442Z,1.80
2022-08-05T13:26:14.737Z,2.20
2022-08-05T13:32:03.320Z,2.25
2022-08-05T13:36:52.740Z,2.00
2022-08-05T13:41:59.095Z,2.10
2022-08-05T13:47:08.756Z,2.17
2022-08-05T13:52:29.467Z,1.85
2022-08-05T13:57:51.235Z,1.35
2022-08-05T14:03:10.381Z,1.55
2022-08-05T14:08:35.528Z,1.50
2022-08-05T14:13:48.538Z,1.40
2022-08-05T14:19:05.025Z,1.95
2022-08-05T14:24:33.585Z,1.30
2022-08-05T14:29:55.634Z,1.30
2022-08-05T14:35:01.644Z,1.33
2022-08-05T14:40:14.012Z,1.30
2022-08-05T14:45:34.950Z,1.40
2022-08-05T14:50:46.557Z,1.30
2022-08-05T14:55:58.738Z,1.60
2022-08-05T15:01:17.465Z,1.90
2022-08-05T15:06:31.211Z,1.35
2022-08-05T15:12:04.112Z,2.03
2022-08-05T15:17:46.814Z,1.58
2022-08-05T15:23:11.583Z,1.80
2022-08-05T15:28:22.249Z,5.20
2022-08-05T15:34:18.397Z,6.60
2022-08-05T15:41:00.213Z,6.22
2022-08-05T15:45:38.197Z,6.65
2022-08-05T15:51:09.316Z,6.60
2022-08-05T15:56:22.361Z,6.53
2022-08-05T16:01:39.759Z,7.43
2022-08-05T16:07:13.410Z,6.68
2022-08-05T16:12:24.119Z,6.40
2022-08-05T16:17:40.205Z,4.18
2022-08-05T16:22:53.247Z,3.67
2022-08-05T16:28:05.903Z,4.80
2022-08-05T16:33:16.567Z,4.57
2022-08-05T16:38:44.025Z,4.88
2022-08-05T16:44:04.709Z,4.57
2022-08-05T16:49:13.806Z,4.20
2022-08-05T16:54:27.534Z,3.70
2022-08-05T17:00:00.355Z,3.15
2022-08-05T17:05:38.474Z,2.97
2022-08-05T17:10:43.676Z,2.90
2022-08-05T17:15:55.622Z,2.90
2022-08-05T17:21:20.045Z,2.63
2022-08-05T17:26:31.681Z,2.30
2022-08-05T17:32:05.718Z,1.92
2022-08-05T17:37:41.910Z,1.60
2022-08-05T17:42:56.938Z,2.38
2022-08-05T17:48:10.134Z,1.73
2022-08-05T17:53:30.167Z,1.30
2022-08-05T17:58:51.218Z,1.30
2022-08-05T18:04:04.737Z,1.73
2022-08-05T18:09:18.705Z,1.58
2022-08-05T18:14:23.931Z,1.48
2022-08-05T18:19:40.735Z,1.20
2022-08-05T18:25:02.394Z,1.27
2022-08-05T18:30:21.487Z,1.15
2022-08-05T18:35:59.640Z,1.10
2022-08-05T18:41:56.163Z,1.33
2022-08-05T18:46:52.816Z,1.23
2022-08-05T18:52:38.067Z,1.50
2022-08-05T18:58:06.928Z,1.33
2022-08-05T19:03:52.743Z,1.80
2022-08-05T19:09:00.357Z,1.20
2022-08-05T19:19:33.256Z,1.23
2022-08-05T19:24:56.136Z,1.13
2022-08-05T19:30:09.195Z,1.10
2022-08-05T19:35:25.956Z,1.63
2022-08-05T19:40:52.177Z,1.17
2022-08-05T19:46:16.653Z,2.10
2022-08-05T19:52:08.324Z,1.13
2022-08-05T19:57:15.741Z,1.20
2022-08-05T20:02:44.457Z,1.35
2022-08-05T20:08:00.847Z,1.10
2022-08-05T20:13:10.261Z,1.15
2022-08-05T20:18:33.681Z,1.17
2022-08-05T20:23:55.432Z,1.33
2022-08-05T20:29:27.341Z,1.20
2022-08-05T20:34:46.578Z,1.20
2022-08-05T20:40:24.090Z,1.42
2022-08-05T20:45:56.271Z,1.30
2022-08-05T20:51:32.036Z,1.40
2022-08-05T20:56:58.037Z,1.50
2022-08-05T21:02:04.678Z,1.30
2022-08-05T21:07:50.834Z,1.35
2022-08-05T21:13:08.822Z,1.40
2022-08-05T21:18:23.280Z,1.45
2022-08-05T21:23:39.022Z,1.38
2022-08-05T21:28:50.841Z,1.20
2022-08-05T21:33:57.485Z,1.48
2022-08-05T21:39:14.287Z,1.70
2022-08-05T21:44:26.773Z,1.60
2022-08-05T21:49:48.620Z,1.27
2022-08-05T21:55:06.249Z,1.50
2022-08-05T22:00:15.842Z,1.48
2022-08-05T22:05:27.699Z,1.48
2022-08-05T22:10:40.103Z,1.33
2022-08-05T22:16:02.729Z,1.40
2022-08-05T22:21:22.594Z,1.38
2022-08-05T22:26:49.902Z,1.50
2022-08-05T22:32:02.585Z,1.50
2022-08-05T22:37:20.901Z,1.50
2022-08-05T22:42:31.444Z,1.27
2022-08-05T22:47:56.894Z,1.75
2022-08-05T22:53:09.882Z,1.63
2022-08-05T22:58:28.639Z,1.80
2022-08-05T23:03:59.134Z,1.60
2022-08-05T23:09:27.587Z,1.73
2022-08-05T23:14:48.563Z,1.70
2022-08-05T23:19:57.133Z,2.00
2022-08-05T23:25:04.169Z,2.17
2022-08-05T23:30:16.877Z,2.05
2022-08-05T23:35:22.727Z,2.40
2022-08-05T23:40:27.900Z,2.08
2022-08-05T23:45:42.886Z,2.00
2022-08-05T23:50:48.660Z,1.70
2022-08-05T23:55:53.502Z,1.35
